Ringgold, Nebraska
Current Conditions -  °F | °C
As of 3:53 AM on Monday 22 Dec 2014 (Local Time) from KLBF Reporting Station
Broken Clouds Broken Clouds  
Wind Chill: -3°   Ceiling: 4500
Heat Index:   Visibility: 10mi
Dew Point: -1°   Wind: 7mph
Humidity: 89%   Direction: 260°W
Pressure: 29.55"   Gusts: NA
Location:  41.5681°N, 101.06°W
Report Text: KLBF 220953Z AUTO 26006KT 10SM FEW031 BKN045 01/M01 A2955 RMK AO2 SLP017 T00061011 $
Loading
Personal Weather Stations






























Interactive Weather Map New forecast layout! Learn more

10-Day Weather Forecast

Advertisements
Track Severe Weather on mobile